sensor_id;sensor_type;location;lat;lon;timestamp;temperature;humidity
44509;DHT22;30214;52.246;14.408;2023-03-03T00:01:34;-0.50;99.90
44509;DHT22;30214;52.246;14.408;2023-03-03T00:04:01;-0.40;99.90
44509;DHT22;30214;52.246;14.408;2023-03-03T00:06:29;-0.40;99.90
44509;DHT22;30214;52.246;14.408;2023-03-03T00:08:56;-0.40;99.90
44509;DHT22;30214;52.246;14.408;2023-03-03T00:11:24;-0.40;99.90
44509;DHT22;30214;52.246;14.408;2023-03-03T00:13:53;-0.40;99.90
44509;DHT22;30214;52.246;14.408;2023-03-03T00:16:24;-0.60;99.90
44509;DHT22;30214;52.246;14.408;2023-03-03T00:18:53;-0.70;99.90
44509;DHT22;30214;52.246;14.408;2023-03-03T00:21:28;-0.70;99.90
44509;DHT22;30214;52.246;14.408;2023-03-03T00:24:10;-0.60;99.90
44509;DHT22;30214;52.246;14.408;2023-03-03T00:26:46;-0.60;99.90
44509;DHT22;30214;52.246;14.408;2023-03-03T00:29:29;-0.50;99.90
44509;DHT22;30214;52.246;14.408;2023-03-03T00:32:24;-0.50;99.90
44509;DHT22;30214;52.246;14.408;2023-03-03T00:34:54;-0.60;99.90
44509;DHT22;30214;52.246;14.408;2023-03-03T00:37:26;-0.70;99.90
44509;DHT22;30214;52.246;14.408;2023-03-03T00:40:01;-0.70;99.90
44509;DHT22;30214;52.246;14.408;2023-03-03T00:42:43;-0.70;99.90
44509;DHT22;30214;52.246;14.408;2023-03-03T00:45:30;-0.80;99.90
44509;DHT22;30214;52.246;14.408;2023-03-03T00:48:15;-0.90;99.90
44509;DHT22;30214;52.246;14.408;2023-03-03T00:50:46;-0.80;99.90
44509;DHT22;30214;52.246;14.408;2023-03-03T00:53:15;-0.80;99.90
44509;DHT22;30214;52.246;14.408;2023-03-03T00:55:44;-0.70;99.90
44509;DHT22;30214;52.246;14.408;2023-03-03T00:58:13;-0.70;99.90
44509;DHT22;30214;52.246;14.408;2023-03-03T01:00:43;-0.60;99.90
44509;DHT22;30214;52.246;14.408;2023-03-03T01:03:15;-0.60;99.90
44509;DHT22;30214;52.246;14.408;2023-03-03T01:05:44;-0.70;99.90
44509;DHT22;30214;52.246;14.408;2023-03-03T01:08:11;-0.90;99.90
44509;DHT22;30214;52.246;14.408;2023-03-03T01:10:42;-0.90;99.90
44509;DHT22;30214;52.246;14.408;2023-03-03T01:13:10;-0.70;99.90
44509;DHT22;30214;52.246;14.408;2023-03-03T01:15:39;-0.60;99.90
44509;DHT22;30214;52.246;14.408;2023-03-03T01:18:07;-0.60;99.90
44509;DHT22;30214;52.246;14.408;2023-03-03T01:20:35;-0.60;99.90
44509;DHT22;30214;52.246;14.408;2023-03-03T01:23:02;-0.50;99.90
44509;DHT22;30214;52.246;14.408;2023-03-03T01:25:30;-0.60;99.90
44509;DHT22;30214;52.246;14.408;2023-03-03T01:27:57;-0.40;99.90
44509;DHT22;30214;52.246;14.408;2023-03-03T01:30:25;-0.40;99.90
44509;DHT22;30214;52.246;14.408;2023-03-03T01:32:54;-0.30;99.90
44509;DHT22;30214;52.246;14.408;2023-03-03T01:35:21;-0.20;99.90
44509;DHT22;30214;52.246;14.408;2023-03-03T01:37:48;-0.20;99.90
44509;DHT22;30214;52.246;14.408;2023-03-03T01:40:19;-0.20;99.90
44509;DHT22;30214;52.246;14.408;2023-03-03T01:42:47;-0.10;99.90
44509;DHT22;30214;52.246;14.408;2023-03-03T01:45:20;-0.20;99.90
44509;DHT22;30214;52.246;14.408;2023-03-03T01:47:55;-0.20;99.90
44509;DHT22;30214;52.246;14.408;2023-03-03T01:50:40;-0.10;99.90
44509;DHT22;30214;52.246;14.408;2023-03-03T01:53:12;-0.10;99.90
44509;DHT22;30214;52.246;14.408;2023-03-03T01:55:44;-0.10;99.90
44509;DHT22;30214;52.246;14.408;2023-03-03T01:58:15;-0.10;99.90
44509;DHT22;30214;52.246;14.408;2023-03-03T02:00:49;-0.20;99.90
44509;DHT22;30214;52.246;14.408;2023-03-03T02:03:20;-0.20;99.90
44509;DHT22;30214;52.246;14.408;2023-03-03T02:05:49;-0.20;99.90
44509;DHT22;30214;52.246;14.408;2023-03-03T02:08:21;-0.20;99.90
44509;DHT22;30214;52.246;14.408;2023-03-03T02:10:52;-0.20;99.90
44509;DHT22;30214;52.246;14.408;2023-03-03T02:13:19;-0.20;99.90
44509;DHT22;30214;52.246;14.408;2023-03-03T02:15:48;-0.20;99.90
44509;DHT22;30214;52.246;14.408;2023-03-03T02:18:19;-0.20;99.90
44509;DHT22;30214;52.246;14.408;2023-03-03T02:20:53;-0.20;99.90
44509;DHT22;30214;52.246;14.408;2023-03-03T02:23:29;-0.20;99.90
44509;DHT22;30214;52.246;14.408;2023-03-03T02:26:08;-0.10;99.90
44509;DHT22;30214;52.246;14.408;2023-03-03T02:28:38;-0.20;99.90
44509;DHT22;30214;52.246;14.408;2023-03-03T02:31:10;-0.20;99.90
44509;DHT22;30214;52.246;14.408;2023-03-03T02:33:40;-0.20;99.90
44509;DHT22;30214;52.246;14.408;2023-03-03T02:36:11;-0.20;99.90
44509;DHT22;30214;52.246;14.408;2023-03-03T02:38:45;-0.20;99.90
44509;DHT22;30214;52.246;14.408;2023-03-03T02:41:25;-0.20;99.90
44509;DHT22;30214;52.246;14.408;2023-03-03T02:43:59;-0.20;99.90
44509;DHT22;30214;52.246;14.408;2023-03-03T02:46:31;-0.20;99.90
44509;DHT22;30214;52.246;14.408;2023-03-03T02:48:59;-0.30;99.90
44509;DHT22;30214;52.246;14.408;2023-03-03T02:51:27;-0.30;99.90
44509;DHT22;30214;52.246;14.408;2023-03-03T02:53:54;-0.30;99.90
44509;DHT22;30214;52.246;14.408;2023-03-03T02:56:24;-0.30;99.90
44509;DHT22;30214;52.246;14.408;2023-03-03T02:58:51;-0.30;99.90
44509;DHT22;30214;52.246;14.408;2023-03-03T03:01:19;-0.20;99.90
44509;DHT22;30214;52.246;14.408;2023-03-03T03:03:47;-0.20;99.90
44509;DHT22;30214;52.246;14.408;2023-03-03T03:06:18;-0.20;99.90
44509;DHT22;30214;52.246;14.408;2023-03-03T03:08:45;-0.20;99.90
44509;DHT22;30214;52.246;14.408;2023-03-03T03:11:12;-0.20;99.90
44509;DHT22;30214;52.246;14.408;2023-03-03T03:13:41;-0.30;99.90
44509;DHT22;30214;52.246;14.408;2023-03-03T03:16:08;-0.30;99.90
44509;DHT22;30214;52.246;14.408;2023-03-03T03:18:36;-0.30;99.90
44509;DHT22;30214;52.246;14.408;2023-03-03T03:21:08;-0.30;99.90
44509;DHT22;30214;52.246;14.408;2023-03-03T03:23:37;-0.20;99.90
44509;DHT22;30214;52.246;14.408;2023-03-03T03:26:05;-0.10;99.90
44509;DHT22;30214;52.246;14.408;2023-03-03T03:28:32;-0.10;99.90
44509;DHT22;30214;52.246;14.408;2023-03-03T03:31:02;-0.10;99.90
44509;DHT22;30214;52.246;14.408;2023-03-03T03:33:29;-0.10;99.90
44509;DHT22;30214;52.246;14.408;2023-03-03T03:35:58;-0.10;99.90
44509;DHT22;30214;52.246;14.408;2023-03-03T03:38:27;-0.10;99.90
44509;DHT22;30214;52.246;14.408;2023-03-03T03:40:57;-0.10;99.90
44509;DHT22;30214;52.246;14.408;2023-03-03T03:43:25;-0.20;99.90
44509;DHT22;30214;52.246;14.408;2023-03-03T03:45:52;-0.10;99.90
44509;DHT22;30214;52.246;14.408;2023-03-03T03:48:21;-0.20;99.90
44509;DHT22;30214;52.246;14.408;2023-03-03T03:50:49;-0.20;99.90
44509;DHT22;30214;52.246;14.408;2023-03-03T03:53:17;-0.20;99.90
44509;DHT22;30214;52.246;14.408;2023-03-03T03:55:45;-0.20;99.90
44509;DHT22;30214;52.246;14.408;2023-03-03T03:58:14;-0.10;99.90
44509;DHT22;30214;52.246;14.408;2023-03-03T04:00:45;-0.10;99.90
44509;DHT22;30214;52.246;14.408;2023-03-03T04:03:13;0.00;99.90
44509;DHT22;30214;52.246;14.408;2023-03-03T04:05:43;0.00;99.90
44509;DHT22;30214;52.246;14.408;2023-03-03T04:08:11;0.00;99.90
44509;DHT22;30214;52.246;14.408;2023-03-03T04:10:40;0.00;99.90
44509;DHT22;30214;52.246;14.408;2023-03-03T04:13:07;0.00;99.90
44509;DHT22;30214;52.246;14.408;2023-03-03T04:15:35;-0.10;99.90
44509;DHT22;30214;52.246;14.408;2023-03-03T04:18:03;-0.10;99.90
44509;DHT22;30214;52.246;14.408;2023-03-03T04:20:30;-0.10;99.90
44509;DHT22;30214;52.246;14.408;2023-03-03T04:22:58;-0.20;99.90
44509;DHT22;30214;52.246;14.408;2023-03-03T04:25:26;-0.20;99.90
44509;DHT22;30214;52.246;14.408;2023-03-03T04:27:53;-0.20;99.90
44509;DHT22;30214;52.246;14.408;2023-03-03T04:30:22;-0.30;99.90
44509;DHT22;30214;52.246;14.408;2023-03-03T04:32:52;-0.40;99.90
44509;DHT22;30214;52.246;14.408;2023-03-03T04:35:22;-0.40;99.90
44509;DHT22;30214;52.246;14.408;2023-03-03T04:37:49;-0.40;99.90
44509;DHT22;30214;52.246;14.408;2023-03-03T04:40:18;-0.40;99.90
44509;DHT22;30214;52.246;14.408;2023-03-03T04:42:48;-0.50;99.90
44509;DHT22;30214;52.246;14.408;2023-03-03T04:45:15;-0.50;99.90
44509;DHT22;30214;52.246;14.408;2023-03-03T04:47:44;-0.50;99.90
44509;DHT22;30214;52.246;14.408;2023-03-03T04:50:12;-0.40;99.90
44509;DHT22;30214;52.246;14.408;2023-03-03T04:52:40;-0.10;99.90
44509;DHT22;30214;52.246;14.408;2023-03-03T04:55:08;0.10;99.90
44509;DHT22;30214;52.246;14.408;2023-03-03T04:57:39;0.10;99.90
44509;DHT22;30214;52.246;14.408;2023-03-03T05:00:07;0.00;99.90
44509;DHT22;30214;52.246;14.408;2023-03-03T05:02:37;-0.10;99.90
44509;DHT22;30214;52.246;14.408;2023-03-03T05:05:06;-0.30;99.90
44509;DHT22;30214;52.246;14.408;2023-03-03T05:07:34;-0.50;99.90
44509;DHT22;30214;52.246;14.408;2023-03-03T05:10:01;-0.60;99.90
44509;DHT22;30214;52.246;14.408;2023-03-03T05:12:29;-0.60;99.90
44509;DHT22;30214;52.246;14.408;2023-03-03T05:14:57;-0.80;99.90
44509;DHT22;30214;52.246;14.408;2023-03-03T05:17:25;-0.80;99.90
44509;DHT22;30214;52.246;14.408;2023-03-03T05:19:52;-0.90;99.90
44509;DHT22;30214;52.246;14.408;2023-03-03T05:22:22;-0.80;99.90
44509;DHT22;30214;52.246;14.408;2023-03-03T05:24:49;-0.90;99.90
44509;DHT22;30214;52.246;14.408;2023-03-03T05:27:16;-0.90;99.90
44509;DHT22;30214;52.246;14.408;2023-03-03T05:29:43;-0.90;99.90
44509;DHT22;30214;52.246;14.408;2023-03-03T05:32:12;-1.00;99.90
44509;DHT22;30214;52.246;14.408;2023-03-03T05:34:39;-1.10;99.90
44509;DHT22;30214;52.246;14.408;2023-03-03T05:37:07;-1.10;99.90
44509;DHT22;30214;52.246;14.408;2023-03-03T05:39:37;-1.00;99.90
44509;DHT22;30214;52.246;14.408;2023-03-03T05:42:05;-0.90;99.90
44509;DHT22;30214;52.246;14.408;2023-03-03T05:44:32;-1.00;99.90
44509;DHT22;30214;52.246;14.408;2023-03-03T05:46:59;-1.10;99.90
44509;DHT22;30214;52.246;14.408;2023-03-03T05:49:27;-1.10;99.90
44509;DHT22;30214;52.246;14.408;2023-03-03T05:51:55;-1.10;99.90
44509;DHT22;30214;52.246;14.408;2023-03-03T05:54:23;-1.10;99.90
44509;DHT22;30214;52.246;14.408;2023-03-03T05:56:50;-1.00;99.90
44509;DHT22;30214;52.246;14.408;2023-03-03T05:59:18;-1.10;99.90
44509;DHT22;30214;52.246;14.408;2023-03-03T06:01:45;-1.10;99.90
44509;DHT22;30214;52.246;14.408;2023-03-03T06:04:13;-1.20;99.90
44509;DHT22;30214;52.246;14.408;2023-03-03T06:06:41;-1.20;99.90
44509;DHT22;30214;52.246;14.408;2023-03-03T06:09:09;-1.20;99.90
44509;DHT22;30214;52.246;14.408;2023-03-03T06:11:36;-1.20;99.90
44509;DHT22;30214;52.246;14.408;2023-03-03T06:14:04;-1.20;99.90
44509;DHT22;30214;52.246;14.408;2023-03-03T06:16:31;-1.30;99.90
44509;DHT22;30214;52.246;14.408;2023-03-03T06:18:58;-1.30;99.90
44509;DHT22;30214;52.246;14.408;2023-03-03T06:21:25;-1.30;99.90
44509;DHT22;30214;52.246;14.408;2023-03-03T06:23:54;-1.20;99.90
44509;DHT22;30214;52.246;14.408;2023-03-03T06:26:21;-1.20;99.90
44509;DHT22;30214;52.246;14.408;2023-03-03T06:28:48;-1.20;99.90
44509;DHT22;30214;52.246;14.408;2023-03-03T06:31:18;-1.20;99.90
44509;DHT22;30214;52.246;14.408;2023-03-03T06:33:45;-1.20;99.90
44509;DHT22;30214;52.246;14.408;2023-03-03T06:36:12;-1.10;99.90
44509;DHT22;30214;52.246;14.408;2023-03-03T06:38:39;-1.00;99.90
44509;DHT22;30214;52.246;14.408;2023-03-03T06:41:08;-0.90;99.90
44509;DHT22;30214;52.246;14.408;2023-03-03T06:43:36;-0.90;99.90
44509;DHT22;30214;52.246;14.408;2023-03-03T06:46:04;-0.80;99.90
44509;DHT22;30214;52.246;14.408;2023-03-03T06:48:32;-0.90;99.90
44509;DHT22;30214;52.246;14.408;2023-03-03T06:51:00;-0.90;99.90
44509;DHT22;30214;52.246;14.408;2023-03-03T06:53:30;-0.90;99.90
44509;DHT22;30214;52.246;14.408;2023-03-03T06:55:59;-0.80;99.90
44509;DHT22;30214;52.246;14.408;2023-03-03T06:58:29;-0.90;99.90
44509;DHT22;30214;52.246;14.408;2023-03-03T07:00:57;-0.90;99.90
44509;DHT22;30214;52.246;14.408;2023-03-03T07:03:27;-0.80;99.90
44509;DHT22;30214;52.246;14.408;2023-03-03T07:05:59;-0.80;99.90
44509;DHT22;30214;52.246;14.408;2023-03-03T07:08:30;-0.80;99.90
44509;DHT22;30214;52.246;14.408;2023-03-03T07:11:01;-0.80;99.90
44509;DHT22;30214;52.246;14.408;2023-03-03T07:13:38;-0.70;99.90
44509;DHT22;30214;52.246;14.408;2023-03-03T07:16:13;-0.60;99.90
44509;DHT22;30214;52.246;14.408;2023-03-03T07:18:46;-0.60;99.90
44509;DHT22;30214;52.246;14.408;2023-03-03T07:21:17;-0.60;99.90
44509;DHT22;30214;52.246;14.408;2023-03-03T07:23:47;-0.50;99.90
44509;DHT22;30214;52.246;14.408;2023-03-03T07:26:17;-0.60;99.90
44509;DHT22;30214;52.246;14.408;2023-03-03T07:28:52;-0.60;99.90
44509;DHT22;30214;52.246;14.408;2023-03-03T07:31:29;-0.70;99.90
44509;DHT22;30214;52.246;14.408;2023-03-03T07:33:58;-0.70;99.90
44509;DHT22;30214;52.246;14.408;2023-03-03T07:36:28;-0.70;99.90
44509;DHT22;30214;52.246;14.408;2023-03-03T07:38:58;-0.70;99.90
44509;DHT22;30214;52.246;14.408;2023-03-03T07:41:27;-0.60;99.90
44509;DHT22;30214;52.246;14.408;2023-03-03T07:44:01;-0.60;99.90
44509;DHT22;30214;52.246;14.408;2023-03-03T07:46:36;-0.60;99.90
44509;DHT22;30214;52.246;14.408;2023-03-03T07:49:20;-0.50;99.90
44509;DHT22;30214;52.246;14.408;2023-03-03T07:51:52;-0.40;99.90
44509;DHT22;30214;52.246;14.408;2023-03-03T07:54:38;-0.30;99.90
44509;DHT22;30214;52.246;14.408;2023-03-03T07:57:18;-0.20;99.90
44509;DHT22;30214;52.246;14.408;2023-03-03T07:59:49;-0.30;99.90
44509;DHT22;30214;52.246;14.408;2023-03-03T08:02:39;-0.30;99.90
44509;DHT22;30214;52.246;14.408;2023-03-03T08:05:33;-0.20;99.90
44509;DHT22;30214;52.246;14.408;2023-03-03T08:08:17;-0.10;99.90
44509;DHT22;30214;52.246;14.408;2023-03-03T08:10:48;-0.10;99.90
44509;DHT22;30214;52.246;14.408;2023-03-03T08:13:19;-0.10;99.90
44509;DHT22;30214;52.246;14.408;2023-03-03T08:15:51;-0.10;99.90
44509;DHT22;30214;52.246;14.408;2023-03-03T08:18:23;-0.10;99.90
44509;DHT22;30214;52.246;14.408;2023-03-03T08:20:55;-0.10;99.90
44509;DHT22;30214;52.246;14.408;2023-03-03T08:23:23;0.00;99.90
44509;DHT22;30214;52.246;14.408;2023-03-03T08:25:51;0.00;99.90
44509;DHT22;30214;52.246;14.408;2023-03-03T08:28:19;0.00;99.90
44509;DHT22;30214;52.246;14.408;2023-03-03T08:30:49;-0.10;99.90
44509;DHT22;30214;52.246;14.408;2023-03-03T08:33:16;-0.20;99.90
44509;DHT22;30214;52.246;14.408;2023-03-03T08:35:44;-0.30;99.90
44509;DHT22;30214;52.246;14.408;2023-03-03T08:38:14;-0.20;99.90
44509;DHT22;30214;52.246;14.408;2023-03-03T08:40:43;-0.10;99.90
44509;DHT22;30214;52.246;14.408;2023-03-03T08:43:11;0.00;99.90
44509;DHT22;30214;52.246;14.408;2023-03-03T08:45:41;0.10;99.90
44509;DHT22;30214;52.246;14.408;2023-03-03T08:48:10;0.20;99.90
44509;DHT22;30214;52.246;14.408;2023-03-03T08:50:37;0.20;99.90
44509;DHT22;30214;52.246;14.408;2023-03-03T08:53:05;0.20;99.90
44509;DHT22;30214;52.246;14.408;2023-03-03T08:55:33;0.30;99.90
44509;DHT22;30214;52.246;14.408;2023-03-03T08:58:01;0.20;99.90
44509;DHT22;30214;52.246;14.408;2023-03-03T09:00:28;0.20;99.90
44509;DHT22;30214;52.246;14.408;2023-03-03T09:02:55;0.30;99.90
44509;DHT22;30214;52.246;14.408;2023-03-03T09:05:24;0.30;99.90
44509;DHT22;30214;52.246;14.408;2023-03-03T09:07:52;0.30;99.90
44509;DHT22;30214;52.246;14.408;2023-03-03T09:10:22;0.40;99.90
44509;DHT22;30214;52.246;14.408;2023-03-03T09:12:52;0.40;99.90
44509;DHT22;30214;52.246;14.408;2023-03-03T09:15:25;0.50;99.90
44509;DHT22;30214;52.246;14.408;2023-03-03T09:17:57;0.60;99.90
44509;DHT22;30214;52.246;14.408;2023-03-03T09:20:34;0.70;99.90
44509;DHT22;30214;52.246;14.408;2023-03-03T09:23:22;0.70;99.90
44509;DHT22;30214;52.246;14.408;2023-03-03T09:25:55;0.60;99.90
44509;DHT22;30214;52.246;14.408;2023-03-03T09:28:24;0.40;99.90
44509;DHT22;30214;52.246;14.408;2023-03-03T09:30:56;0.20;99.90
44509;DHT22;30214;52.246;14.408;2023-03-03T09:33:27;0.20;99.90
44509;DHT22;30214;52.246;14.408;2023-03-03T09:36:10;0.20;99.90
44509;DHT22;30214;52.246;14.408;2023-03-03T09:38:43;0.20;99.90
44509;DHT22;30214;52.246;14.408;2023-03-03T09:45:05;0.20;99.90
44509;DHT22;30214;52.246;14.408;2023-03-03T09:47:49;0.20;99.90
44509;DHT22;30214;52.246;14.408;2023-03-03T09:50:32;0.40;99.90
44509;DHT22;30214;52.246;14.408;2023-03-03T09:53:14;0.40;99.90
44509;DHT22;30214;52.246;14.408;2023-03-03T09:55:54;0.50;99.90
44509;DHT22;30214;52.246;14.408;2023-03-03T09:58:33;0.50;99.90
44509;DHT22;30214;52.246;14.408;2023-03-03T10:01:24;0.60;99.90
44509;DHT22;30214;52.246;14.408;2023-03-03T10:04:18;0.90;99.90
44509;DHT22;30214;52.246;14.408;2023-03-03T10:06:55;0.90;99.90
44509;DHT22;30214;52.246;14.408;2023-03-03T10:09:45;0.90;99.90
44509;DHT22;30214;52.246;14.408;2023-03-03T10:12:26;0.90;99.90
44509;DHT22;30214;52.246;14.408;2023-03-03T10:15:02;0.80;99.90
44509;DHT22;30214;52.246;14.408;2023-03-03T10:17:46;0.80;99.90
44509;DHT22;30214;52.246;14.408;2023-03-03T10:23:29;0.60;99.90
44509;DHT22;30214;52.246;14.408;2023-03-03T10:26:18;0.70;99.90
44509;DHT22;30214;52.246;14.408;2023-03-03T10:29:04;0.60;99.90
44509;DHT22;30214;52.246;14.408;2023-03-03T10:31:48;0.50;99.90
44509;DHT22;30214;52.246;14.408;2023-03-03T10:34:50;0.50;99.90
44509;DHT22;30214;52.246;14.408;2023-03-03T10:37:30;0.50;99.90
44509;DHT22;30214;52.246;14.408;2023-03-03T10:40:07;0.40;99.90
44509;DHT22;30214;52.246;14.408;2023-03-03T10:42:54;0.30;99.90
44509;DHT22;30214;52.246;14.408;2023-03-03T10:45:41;0.40;99.90
44509;DHT22;30214;52.246;14.408;2023-03-03T10:48:41;0.50;99.90
44509;DHT22;30214;52.246;14.408;2023-03-03T10:51:35;0.60;99.90
44509;DHT22;30214;52.246;14.408;2023-03-03T10:54:20;0.80;99.90
44509;DHT22;30214;52.246;14.408;2023-03-03T10:57:02;0.80;99.90
44509;DHT22;30214;52.246;14.408;2023-03-03T10:59:40;0.70;99.90
44509;DHT22;30214;52.246;14.408;2023-03-03T11:02:18;0.70;99.90
44509;DHT22;30214;52.246;14.408;2023-03-03T11:05:09;0.60;99.90
44509;DHT22;30214;52.246;14.408;2023-03-03T11:07:43;0.60;99.90
44509;DHT22;30214;52.246;14.408;2023-03-03T11:10:29;0.60;99.90
44509;DHT22;30214;52.246;14.408;2023-03-03T11:13:09;0.70;99.90
44509;DHT22;30214;52.246;14.408;2023-03-03T11:15:53;0.60;99.90
44509;DHT22;30214;52.246;14.408;2023-03-03T11:18:37;0.70;99.90
44509;DHT22;30214;52.246;14.408;2023-03-03T11:21:20;0.90;99.90
44509;DHT22;30214;52.246;14.408;2023-03-03T11:23:59;0.90;99.90
44509;DHT22;30214;52.246;14.408;2023-03-03T11:26:56;1.00;99.90
44509;DHT22;30214;52.246;14.408;2023-03-03T11:29:51;1.00;99.90
44509;DHT22;30214;52.246;14.408;2023-03-03T11:32:37;1.10;99.90
44509;DHT22;30214;52.246;14.408;2023-03-03T11:35:22;0.90;99.90
44509;DHT22;30214;52.246;14.408;2023-03-03T11:37:59;0.80;99.90
44509;DHT22;30214;52.246;14.408;2023-03-03T11:40:40;0.80;99.90
44509;DHT22;30214;52.246;14.408;2023-03-03T11:43:16;0.70;99.90
44509;DHT22;30214;52.246;14.408;2023-03-03T11:45:47;0.60;99.90
44509;DHT22;30214;52.246;14.408;2023-03-03T11:48:22;0.60;99.90
44509;DHT22;30214;52.246;14.408;2023-03-03T11:51:02;0.60;99.90
44509;DHT22;30214;52.246;14.408;2023-03-03T11:53:56;0.50;99.90
44509;DHT22;30214;52.246;14.408;2023-03-03T11:56:29;0.50;99.90
44509;DHT22;30214;52.246;14.408;2023-03-03T11:59:25;0.60;99.90
44509;DHT22;30214;52.246;14.408;2023-03-03T12:02:11;0.60;99.90
44509;DHT22;30214;52.246;14.408;2023-03-03T12:04:51;0.50;99.90
44509;DHT22;30214;52.246;14.408;2023-03-03T12:07:28;0.60;99.90
44509;DHT22;30214;52.246;14.408;2023-03-03T12:10:11;0.70;99.90
44509;DHT22;30214;52.246;14.408;2023-03-03T12:12:44;0.80;99.90
44509;DHT22;30214;52.246;14.408;2023-03-03T12:15:26;0.90;99.90
44509;DHT22;30214;52.246;14.408;2023-03-03T12:18:29;0.80;99.90
44509;DHT22;30214;52.246;14.408;2023-03-03T12:21:17;0.80;99.90
44509;DHT22;30214;52.246;14.408;2023-03-03T12:24:19;0.70;99.90
44509;DHT22;30214;52.246;14.408;2023-03-03T12:27:05;0.80;99.90
44509;DHT22;30214;52.246;14.408;2023-03-03T12:29:41;0.80;99.90
44509;DHT22;30214;52.246;14.408;2023-03-03T12:32:22;1.00;99.90
44509;DHT22;30214;52.246;14.408;2023-03-03T12:35:05;1.10;99.90
44509;DHT22;30214;52.246;14.408;2023-03-03T12:37:46;1.10;99.90
44509;DHT22;30214;52.246;14.408;2023-03-03T12:40:18;1.20;99.90
44509;DHT22;30214;52.246;14.408;2023-03-03T12:43:02;1.20;99.90
44509;DHT22;30214;52.246;14.408;2023-03-03T12:45:43;1.20;99.90
44509;DHT22;30214;52.246;14.408;2023-03-03T12:48:18;1.30;99.90
44509;DHT22;30214;52.246;14.408;2023-03-03T12:50:59;1.20;99.90
44509;DHT22;30214;52.246;14.408;2023-03-03T12:56:50;1.10;99.90
44509;DHT22;30214;52.246;14.408;2023-03-03T12:59:30;1.20;99.90
44509;DHT22;30214;52.246;14.408;2023-03-03T13:02:25;1.20;99.90
44509;DHT22;30214;52.246;14.408;2023-03-03T13:05:09;1.50;99.90
44509;DHT22;30214;52.246;14.408;2023-03-03T13:07:50;1.50;99.90
44509;DHT22;30214;52.246;14.408;2023-03-03T13:10:41;1.50;99.90
44509;DHT22;30214;52.246;14.408;2023-03-03T13:13:20;1.50;99.90
44509;DHT22;30214;52.246;14.408;2023-03-03T13:16:00;1.40;99.90
44509;DHT22;30214;52.246;14.408;2023-03-03T13:18:47;1.30;99.90
44509;DHT22;30214;52.246;14.408;2023-03-03T13:21:25;1.30;99.90
44509;DHT22;30214;52.246;14.408;2023-03-03T13:24:06;1.30;99.90
44509;DHT22;30214;52.246;14.408;2023-03-03T13:27:01;1.20;99.90
44509;DHT22;30214;52.246;14.408;2023-03-03T13:29:47;1.30;99.90
44509;DHT22;30214;52.246;14.408;2023-03-03T13:32:23;1.40;99.90
44509;DHT22;30214;52.246;14.408;2023-03-03T13:35:08;1.50;99.90
44509;DHT22;30214;52.246;14.408;2023-03-03T13:37:47;1.70;99.90
44509;DHT22;30214;52.246;14.408;2023-03-03T13:40:26;1.70;99.90
44509;DHT22;30214;52.246;14.408;2023-03-03T13:43:14;1.70;99.90
44509;DHT22;30214;52.246;14.408;2023-03-03T13:45:57;1.60;99.90
44509;DHT22;30214;52.246;14.408;2023-03-03T13:48:52;1.60;99.90
44509;DHT22;30214;52.246;14.408;2023-03-03T13:51:42;1.60;99.90
44509;DHT22;30214;52.246;14.408;2023-03-03T13:54:24;1.60;99.90
44509;DHT22;30214;52.246;14.408;2023-03-03T13:57:15;1.60;99.90
44509;DHT22;30214;52.246;14.408;2023-03-03T13:59:56;1.60;99.90
44509;DHT22;30214;52.246;14.408;2023-03-03T14:05:49;1.50;99.90
44509;DHT22;30214;52.246;14.408;2023-03-03T14:08:31;1.60;99.90
44509;DHT22;30214;52.246;14.408;2023-03-03T14:11:10;1.80;99.90
44509;DHT22;30214;52.246;14.408;2023-03-03T14:13:47;1.90;99.90
44509;DHT22;30214;52.246;14.408;2023-03-03T14:16:28;2.00;99.90
44509;DHT22;30214;52.246;14.408;2023-03-03T14:19:09;1.90;99.90
44509;DHT22;30214;52.246;14.408;2023-03-03T14:21:47;1.90;99.90
44509;DHT22;30214;52.246;14.408;2023-03-03T14:24:31;1.80;99.90
44509;DHT22;30214;52.246;14.408;2023-03-03T14:27:22;1.70;99.90
44509;DHT22;30214;52.246;14.408;2023-03-03T14:29:51;1.70;99.90
44509;DHT22;30214;52.246;14.408;2023-03-03T14:32:23;1.70;99.90
44509;DHT22;30214;52.246;14.408;2023-03-03T14:34:57;1.80;99.90
44509;DHT22;30214;52.246;14.408;2023-03-03T14:37:26;1.70;99.90
44509;DHT22;30214;52.246;14.408;2023-03-03T14:40:19;1.70;99.90
44509;DHT22;30214;52.246;14.408;2023-03-03T14:42:54;1.70;99.90
44509;DHT22;30214;52.246;14.408;2023-03-03T14:45:30;1.60;99.90
44509;DHT22;30214;52.246;14.408;2023-03-03T14:48:13;1.60;99.90
44509;DHT22;30214;52.246;14.408;2023-03-03T14:50:47;1.60;99.90
44509;DHT22;30214;52.246;14.408;2023-03-03T14:53:21;1.60;99.90
44509;DHT22;30214;52.246;14.408;2023-03-03T14:56:15;1.70;99.90
44509;DHT22;30214;52.246;14.408;2023-03-03T14:58:51;1.70;99.90
44509;DHT22;30214;52.246;14.408;2023-03-03T15:01:22;1.60;99.90
44509;DHT22;30214;52.246;14.408;2023-03-03T15:04:02;1.60;99.90
44509;DHT22;30214;52.246;14.408;2023-03-03T15:06:36;1.60;99.90
44509;DHT22;30214;52.246;14.408;2023-03-03T15:09:22;1.60;99.90
44509;DHT22;30214;52.246;14.408;2023-03-03T15:12:17;1.70;99.90
44509;DHT22;30214;52.246;14.408;2023-03-03T15:14:47;1.70;99.90
44509;DHT22;30214;52.246;14.408;2023-03-03T15:17:23;1.80;99.90
44509;DHT22;30214;52.246;14.408;2023-03-03T15:20:12;1.70;99.90
44509;DHT22;30214;52.246;14.408;2023-03-03T15:22:49;1.70;99.90
44509;DHT22;30214;52.246;14.408;2023-03-03T15:25:27;1.80;99.90
44509;DHT22;30214;52.246;14.408;2023-03-03T15:28:13;1.80;99.90
44509;DHT22;30214;52.246;14.408;2023-03-03T15:30:50;1.80;99.90
44509;DHT22;30214;52.246;14.408;2023-03-03T15:33:25;1.80;99.90
44509;DHT22;30214;52.246;14.408;2023-03-03T15:36:03;1.80;99.90
44509;DHT22;30214;52.246;14.408;2023-03-03T15:38:44;1.70;99.90
44509;DHT22;30214;52.246;14.408;2023-03-03T15:41:25;1.70;99.90
44509;DHT22;30214;52.246;14.408;2023-03-03T15:44:01;1.70;99.90
44509;DHT22;30214;52.246;14.408;2023-03-03T15:46:47;1.70;99.90
44509;DHT22;30214;52.246;14.408;2023-03-03T15:49:32;1.80;99.90
44509;DHT22;30214;52.246;14.408;2023-03-03T15:52:23;1.80;99.90
44509;DHT22;30214;52.246;14.408;2023-03-03T15:55:09;1.80;99.90
44509;DHT22;30214;52.246;14.408;2023-03-03T15:57:49;1.90;99.90
44509;DHT22;30214;52.246;14.408;2023-03-03T16:00:35;1.80;99.90
44509;DHT22;30214;52.246;14.408;2023-03-03T16:03:11;1.80;99.90
44509;DHT22;30214;52.246;14.408;2023-03-03T16:05:45;1.90;99.90
44509;DHT22;30214;52.246;14.408;2023-03-03T16:08:24;1.80;99.90
44509;DHT22;30214;52.246;14.408;2023-03-03T16:11:01;1.80;99.90
44509;DHT22;30214;52.246;14.408;2023-03-03T16:13:43;1.80;99.90
44509;DHT22;30214;52.246;14.408;2023-03-03T16:16:26;1.80;99.90
44509;DHT22;30214;52.246;14.408;2023-03-03T16:19:10;1.80;99.90
44509;DHT22;30214;52.246;14.408;2023-03-03T16:21:51;1.70;99.90
44509;DHT22;30214;52.246;14.408;2023-03-03T16:24:37;1.60;99.90